Etusivu
METAR-TAF:

METAR-TAF

Lentoasemat :

Skövde, Ruotsi

Leveyspiiri: 58-27N, Pituuspiiri: 013-58E, korkeus merenpinnasta: 98 m

Tämänhetkinen sää

Tämä raportti tehtiin 31 minuuttia sitten, kello 20.20 UTC
Tuuli 5 kn etelästä
Lämpötila 15°C
Kosteus 59%
Ilmanpaine 1020 hPa
Näkyvyys 10 km tai enemmän

METAR: ESGR 262020Z AUTO 19005KT 9999 NCD 15/07 Q1020

Aika: 22:51 (20:51 UTC)


TAF: puuttuu

Säähavainnot ja -ennusteet yli 4000 lentoasemalta (METAR- ja TAF-raportit).

Käytössä olevat sääasemat on merkitty karttaan keltaisilla ja punaisilla pisteillä.

Aseta hiiri pisteen päälle nähdäksesi sääaseman nimen.

Klikkaa sitten nähdäksesi säähavainnot ja -ennusteet.

Kartan vaihtaminen: klikkaa mustalla rastilla varustettuja vihreitä pisteitä, niin voit zoomata sisään; viivalla varustettua vihreää pistettä, niin voit zoomata ulos tai vihreitä nuolia, niin pääset viereisille kartoille.


METAR-TAF: